LM1 WBGG-RPVP
Flight info
| Callsign | LM1 |
|---|---|
| Flight time | N/A |
| Altitude | 6000 |
| Route | 030846N1094936E/N0164F050 011455N1113532E/N0168F070 030003N1132912E/N0166F060 043106N1115611E/N0169F070 043848N1132631E 055805N1132748E 043910N1145604E/N0171F080 055851N1132712E/N0169F070 063555N1141554E 065025N1143926E 064025N1150742E 061926N1150833E/N0171F080 054915N1143759E/N0170F070 061906N1150713E 061646N1154311E 055040N1155917E/N0172F080 051316N1152153E/N0169F070 055036N1155829E 063518N1165120E/N0172F080 070607N1164532E 070020N1161619E 063356N1154505E 070705N1151256E/N0174F090 075208N1155831E |
| Aircraft | DA62/L-SDFGRY/C |
Departure
| Time | 2026-04-17 21:03 |
|---|---|
| Airport | Kuching International Airport (WBGG) |
Arrival
| Time | N/A |
|---|---|
| Airport | Puerto Princesa International Airport / PAF Antonio Bautista Air Base (RPVP) |
| Time | Latitude | Longitude | Altitude | Speed | Heading |
|---|---|---|---|---|---|
| 2026-04-17 21:03 | 1.62483 | 110.31885 | 6994 ft | 152 kts | 342° |
| 2026-04-17 21:03 | 1.63488 | 110.31562 | 6988 ft | 151 kts | 341° |
| 2026-04-17 21:03 | 1.64474 | 110.31239 | 6991 ft | 150 kts | 341° |
| 2026-04-17 21:04 | 1.65467 | 110.30916 | 6989 ft | 150 kts | 341° |
| 2026-04-17 21:04 | 1.66460 | 110.30595 | 6991 ft | 149 kts | 341° |
| 2026-04-17 21:04 | 1.67448 | 110.30276 | 6984 ft | 149 kts | 341° |
| 2026-04-17 21:04 | 1.68434 | 110.29957 | 6985 ft | 149 kts | 341° |
| 2026-04-17 21:05 | 1.69423 | 110.29638 | 6983 ft | 149 kts | 341° |
| 2026-04-17 21:05 | 1.70408 | 110.29320 | 6984 ft | 149 kts | 341° |
| 2026-04-17 21:05 | 1.71389 | 110.29003 | 6980 ft | 148 kts | 341° |
| 2026-04-17 21:05 | 1.72370 | 110.28686 | 6980 ft | 148 kts | 341° |
| 2026-04-17 21:06 | 1.73350 | 110.28369 | 6977 ft | 148 kts | 341° |
| 2026-04-17 21:06 | 1.74330 | 110.28053 | 6976 ft | 148 kts | 341° |
| 2026-04-17 21:06 | 1.75309 | 110.27736 | 6977 ft | 148 kts | 341° |
| 2026-04-17 21:06 | 1.76289 | 110.27420 | 6976 ft | 148 kts | 341° |
| 2026-04-17 21:07 | 1.77268 | 110.27103 | 6974 ft | 148 kts | 341° |
| 2026-04-17 21:07 | 1.78245 | 110.26787 | 6974 ft | 148 kts | 341° |
| 2026-04-17 21:07 | 1.79229 | 110.26469 | 6976 ft | 148 kts | 341° |
| 2026-04-17 21:07 | 1.80210 | 110.26152 | 6972 ft | 148 kts | 342° |
| 2026-04-17 21:08 | 1.81190 | 110.25835 | 6971 ft | 149 kts | 341° |
| 2026-04-17 21:08 | 1.82176 | 110.25517 | 6970 ft | 148 kts | 341° |
| 2026-04-17 21:08 | 1.83148 | 110.25202 | 6968 ft | 148 kts | 341° |
| 2026-04-17 21:08 | 1.84132 | 110.24884 | 6971 ft | 148 kts | 341° |
| 2026-04-17 21:09 | 1.85115 | 110.24567 | 6968 ft | 148 kts | 341° |
| 2026-04-17 21:09 | 1.86098 | 110.24249 | 6968 ft | 148 kts | 341° |
| 2026-04-17 21:09 | 1.87081 | 110.23931 | 6970 ft | 148 kts | 341° |
| 2026-04-17 21:09 | 1.88062 | 110.23614 | 6968 ft | 148 kts | 341° |
| 2026-04-17 21:10 | 1.89043 | 110.23297 | 6968 ft | 148 kts | 341° |
| 2026-04-17 21:10 | 1.90020 | 110.22981 | 6969 ft | 147 kts | 341° |
| 2026-04-17 21:10 | 1.90998 | 110.22665 | 6968 ft | 147 kts | 341° |
| 2026-04-17 21:10 | 1.91972 | 110.22350 | 6967 ft | 147 kts | 341° |
| 2026-04-17 21:11 | 1.92930 | 110.22040 | 6970 ft | 147 kts | 341° |
| 2026-04-17 21:11 | 1.93903 | 110.21725 | 6967 ft | 147 kts | 341° |
| 2026-04-17 21:11 | 1.94876 | 110.21411 | 6967 ft | 147 kts | 341° |
| 2026-04-17 21:11 | 1.95848 | 110.21096 | 6968 ft | 147 kts | 341° |
| 2026-04-17 21:12 | 1.96818 | 110.20783 | 6968 ft | 146 kts | 341° |
| 2026-04-17 21:12 | 1.97792 | 110.20468 | 6970 ft | 147 kts | 341° |
| 2026-04-17 21:12 | 1.98770 | 110.20152 | 6969 ft | 147 kts | 341° |
| 2026-04-17 21:12 | 1.99747 | 110.19837 | 6968 ft | 147 kts | 341° |
| 2026-04-17 21:13 | 2.00721 | 110.19522 | 6969 ft | 147 kts | 341° |
| 2026-04-17 21:13 | 2.01693 | 110.19206 | 6967 ft | 148 kts | 341° |
| 2026-04-17 21:13 | 2.02672 | 110.18891 | 6969 ft | 147 kts | 341° |
| 2026-04-17 21:13 | 2.03646 | 110.18576 | 6969 ft | 147 kts | 341° |
| 2026-04-17 21:14 | 2.04620 | 110.18261 | 6970 ft | 147 kts | 341° |
| 2026-04-17 21:14 | 2.05592 | 110.17946 | 6971 ft | 147 kts | 341° |
| 2026-04-17 21:14 | 2.06563 | 110.17632 | 6969 ft | 147 kts | 341° |
| 2026-04-17 21:14 | 2.07538 | 110.17317 | 6969 ft | 146 kts | 341° |
| 2026-04-17 21:15 | 2.08506 | 110.17004 | 6964 ft | 147 kts | 341° |
| 2026-04-17 21:15 | 2.09478 | 110.16690 | 6967 ft | 147 kts | 341° |
| 2026-04-17 21:15 | 2.10435 | 110.16380 | 6967 ft | 147 kts | 342° |
| 2026-04-17 21:15 | 2.11414 | 110.16064 | 6968 ft | 148 kts | 342° |
| 2026-04-17 21:16 | 2.12389 | 110.15749 | 6973 ft | 147 kts | 341° |
| 2026-04-17 21:16 | 2.13363 | 110.15434 | 6971 ft | 147 kts | 341° |
| 2026-04-17 21:16 | 2.14339 | 110.15118 | 6971 ft | 147 kts | 341° |
| 2026-04-17 21:16 | 2.15317 | 110.14802 | 6969 ft | 147 kts | 341° |
| 2026-04-17 21:17 | 2.16296 | 110.14485 | 6971 ft | 147 kts | 341° |
| 2026-04-17 21:17 | 2.17271 | 110.14170 | 6971 ft | 148 kts | 341° |
| 2026-04-17 21:17 | 2.18248 | 110.13854 | 6970 ft | 148 kts | 341° |
| 2026-04-17 21:17 | 2.19226 | 110.13538 | 6970 ft | 148 kts | 341° |
| 2026-04-17 21:18 | 2.20201 | 110.13223 | 6969 ft | 147 kts | 341° |
| 2026-04-17 21:18 | 2.21171 | 110.12909 | 6971 ft | 147 kts | 341° |
| 2026-04-17 21:18 | 2.22134 | 110.12598 | 6967 ft | 146 kts | 341° |
| 2026-04-17 21:18 | 2.23112 | 110.12281 | 6965 ft | 146 kts | 341° |
| 2026-04-17 21:19 | 2.24079 | 110.11968 | 6971 ft | 146 kts | 341° |
| 2026-04-17 21:19 | 2.25045 | 110.11656 | 6970 ft | 146 kts | 341° |
| 2026-04-17 21:19 | 2.26012 | 110.11343 | 6967 ft | 146 kts | 342° |
| 2026-04-17 21:19 | 2.26966 | 110.11035 | 6966 ft | 146 kts | 342° |
| 2026-04-17 21:20 | 2.27931 | 110.10722 | 6968 ft | 146 kts | 342° |
| 2026-04-17 21:20 | 2.28900 | 110.10409 | 6970 ft | 146 kts | 341° |
| 2026-04-17 21:20 | 2.29874 | 110.10094 | 6966 ft | 147 kts | 342° |
| 2026-04-17 21:20 | 2.30846 | 110.09780 | 6970 ft | 147 kts | 341° |
| 2026-04-17 21:21 | 2.31822 | 110.09464 | 6967 ft | 148 kts | 342° |
| 2026-04-17 21:21 | 2.32803 | 110.09147 | 6970 ft | 148 kts | 342° |
| 2026-04-17 21:21 | 2.33783 | 110.08830 | 6968 ft | 148 kts | 341° |
| 2026-04-17 21:21 | 2.34762 | 110.08513 | 6970 ft | 148 kts | 341° |
| 2026-04-17 21:22 | 2.35743 | 110.08196 | 6969 ft | 148 kts | 342° |
| 2026-04-17 21:22 | 2.36722 | 110.07879 | 6970 ft | 148 kts | 342° |
| 2026-04-17 21:22 | 2.37704 | 110.07561 | 6968 ft | 148 kts | 341° |
| 2026-04-17 21:22 | 2.38682 | 110.07245 | 6967 ft | 147 kts | 341° |
| 2026-04-17 21:23 | 2.39659 | 110.06929 | 6968 ft | 147 kts | 341° |
| 2026-04-17 21:23 | 2.40629 | 110.06615 | 6968 ft | 147 kts | 341° |
| 2026-04-17 21:23 | 2.41602 | 110.06300 | 6966 ft | 147 kts | 342° |
| 2026-04-17 21:23 | 2.42562 | 110.05989 | 6970 ft | 147 kts | 341° |
| 2026-04-17 21:24 | 2.43537 | 110.05674 | 6967 ft | 147 kts | 342° |
| 2026-04-17 21:24 | 2.44508 | 110.05360 | 6970 ft | 146 kts | 342° |
| 2026-04-17 21:24 | 2.45481 | 110.05045 | 6966 ft | 147 kts | 342° |
| 2026-04-17 21:24 | 2.46452 | 110.04731 | 6967 ft | 147 kts | 342° |
| 2026-04-17 21:25 | 2.47422 | 110.04418 | 6966 ft | 147 kts | 341° |
| 2026-04-17 21:25 | 2.48394 | 110.04103 | 6969 ft | 147 kts | 341° |
| 2026-04-17 21:25 | 2.49368 | 110.03788 | 6968 ft | 147 kts | 342° |
| 2026-04-17 21:25 | 2.50341 | 110.03473 | 6968 ft | 147 kts | 342° |
| 2026-04-17 21:26 | 2.51320 | 110.03157 | 6969 ft | 148 kts | 342° |
| 2026-04-17 21:26 | 2.52286 | 110.02844 | 6969 ft | 148 kts | 341° |
| 2026-04-17 21:26 | 2.53263 | 110.02527 | 6970 ft | 147 kts | 341° |
| 2026-04-17 21:26 | 2.54239 | 110.02212 | 6965 ft | 147 kts | 342° |
| 2026-04-17 21:27 | 2.55213 | 110.01896 | 6966 ft | 147 kts | 342° |
| 2026-04-17 21:27 | 2.56188 | 110.01581 | 6967 ft | 147 kts | 342° |
| 2026-04-17 21:27 | 2.57167 | 110.01265 | 6969 ft | 148 kts | 342° |
| 2026-04-17 21:27 | 2.58145 | 110.00948 | 6970 ft | 148 kts | 342° |
| 2026-04-17 21:28 | 2.59125 | 110.00631 | 6969 ft | 148 kts | 342° |
| 2026-04-17 21:28 | 2.60104 | 110.00314 | 6966 ft | 148 kts | 342° |
| 2026-04-17 21:28 | 2.61081 | 109.99998 | 6964 ft | 147 kts | 342° |
| 2026-04-17 21:28 | 2.62060 | 109.99681 | 6967 ft | 148 kts | 342° |
| 2026-04-17 21:29 | 2.63039 | 109.99364 | 6962 ft | 148 kts | 342° |
| 2026-04-17 21:29 | 2.64016 | 109.99048 | 6966 ft | 148 kts | 342° |
| 2026-04-17 21:29 | 2.64998 | 109.98731 | 6964 ft | 148 kts | 342° |
| 2026-04-17 21:29 | 2.65968 | 109.98417 | 6963 ft | 148 kts | 342° |
| 2026-04-17 21:30 | 2.66963 | 109.98095 | 6967 ft | 148 kts | 342° |
| 2026-04-17 21:30 | 2.67944 | 109.97777 | 6963 ft | 148 kts | 342° |
| 2026-04-17 21:30 | 2.68927 | 109.97459 | 6967 ft | 148 kts | 342° |
| 2026-04-17 21:30 | 2.69911 | 109.97140 | 6968 ft | 149 kts | 342° |
| 2026-04-17 21:31 | 2.70896 | 109.96822 | 6966 ft | 149 kts | 342° |
| 2026-04-17 21:31 | 2.71869 | 109.96506 | 6969 ft | 149 kts | 342° |
| 2026-04-17 21:31 | 2.72852 | 109.96188 | 6963 ft | 149 kts | 342° |
| 2026-04-17 21:31 | 2.73840 | 109.95869 | 6962 ft | 149 kts | 342° |
| 2026-04-17 21:32 | 2.74825 | 109.95550 | 6966 ft | 148 kts | 342° |
| 2026-04-17 21:32 | 2.75807 | 109.95232 | 6966 ft | 148 kts | 342° |
| 2026-04-17 21:32 | 2.76785 | 109.94915 | 6964 ft | 147 kts | 342° |
| 2026-04-17 21:32 | 2.77760 | 109.94599 | 6968 ft | 147 kts | 342° |
| 2026-04-17 21:33 | 2.78336 | 109.94413 | 6965 ft | 147 kts | 342° |